Time;durP1;ratioP1;P1;durP2;ratioP2;P2;SDS_P1;SDS_P2;PMS_P1;PMS_P2;Temp;Humidity;BMP_temperature;BMP_pressure;BME280_temperature;BME280_humidity;BME280_pressure;Samples;Min_cycle;Max_cycle;Signal;HPM_P1;HPM_P2
2023/08/01 00:00:38;;;;;;;6.65;5.88;;;;;;;-148.88;100.00;-17125.47;5014734;28;20140;-88
2023/08/01 00:03:03;;;;;;;6.32;5.70;;;;;;;-148.88;100.00;-17125.47;5014503;28;20026;-89
2023/08/01 00:05:32;;;;;;;7.15;5.80;;;;;;;-148.88;100.00;-17125.47;5014442;28;20026;-89
2023/08/01 00:07:57;;;;;;;7.50;5.60;;;;;;;-148.88;100.00;-17125.47;5014576;28;20021;-90
2023/08/01 00:10:27;;;;;;;6.18;5.57;;;;;;;-148.88;100.00;-17125.47;5014659;28;20046;-89
2023/08/01 00:12:55;;;;;;;5.18;4.53;;;;;;;-148.88;100.00;-17125.47;5014749;28;20054;-89
2023/08/01 00:15:21;;;;;;;4.47;4.07;;;;;;;-148.88;100.00;-17125.47;5014140;28;20033;-89
2023/08/01 00:17:46;;;;;;;5.20;3.90;;;;;;;-148.88;100.00;-17125.47;5014760;28;20376;-88
2023/08/01 00:20:21;;;;;;;4.75;4.13;;;;;;;-148.88;100.00;-17125.47;5014568;28;20460;-90
2023/08/01 00:22:46;;;;;;;4.13;3.60;;;;;;;-148.88;100.00;-17125.47;5014456;28;20026;-89
2023/08/01 00:25:15;;;;;;;3.97;3.17;;;;;;;-148.88;100.00;-17125.47;5014712;28;20088;-89
2023/08/01 00:27:47;;;;;;;6.75;3.60;;;;;;;-148.88;100.00;-17125.47;5013998;28;20026;-89
2023/08/01 00:30:22;;;;;;;3.72;3.33;;;;;;;-148.88;100.00;-17125.47;5015151;28;20056;-90
2023/08/01 00:32:50;;;;;;;4.63;3.05;;;;;;;-148.88;100.00;-17125.47;5015391;28;20018;-89
2023/08/01 00:35:24;;;;;;;4.47;2.72;;;;;;;-148.88;100.00;-17125.47;5014238;28;20465;-89
2023/08/01 00:37:49;;;;;;;5.53;3.00;;;;;;;-148.88;100.00;-17125.47;5014003;28;20029;-90
2023/08/01 00:40:30;;;;;;;3.28;2.90;;;;;;;-148.88;100.00;-17125.47;5013796;28;20032;-89
2023/08/01 00:43:04;;;;;;;3.60;2.65;;;;;;;-148.88;100.00;-17125.47;5013928;28;20021;-90
2023/08/01 00:45:30;;;;;;;3.35;2.70;;;;;;;-148.88;100.00;-17125.47;5013669;28;20034;-89
2023/08/01 00:47:56;;;;;;;4.03;2.65;;;;;;;-148.88;100.00;-17125.47;5013978;28;20036;-88
2023/08/01 00:50:31;;;;;;;3.78;2.65;;;;;;;-148.88;100.00;-17125.47;5013787;28;20018;-90
2023/08/01 00:52:57;;;;;;;5.68;2.95;;;;;;;-148.88;100.00;-17125.47;5013719;28;20022;-89
2023/08/01 00:55:23;;;;;;;5.28;2.75;;;;;;;-148.88;100.00;-17125.47;5013584;28;20088;-88
2023/08/01 00:57:58;;;;;;;5.15;2.85;;;;;;;-148.88;100.00;-17125.47;5013927;28;20025;-90
2023/08/01 01:00:26;;;;;;;4.88;2.88;;;;;;;-148.88;100.00;-17125.47;5014591;28;20022;-89
2023/08/01 01:02:56;;;;;;;7.30;2.80;;;;;;;-148.88;100.00;-17125.47;5013449;28;20022;-89
2023/08/01 01:05:27;;;;;;;2.85;2.30;;;;;;;-148.88;100.00;-17125.47;5014574;28;20022;-89
2023/08/01 01:07:55;;;;;;;4.65;2.67;;;;;;;-148.88;100.00;-17125.47;5014445;28;20038;-89
2023/08/01 01:10:20;;;;;;;4.40;2.50;;;;;;;-148.88;100.00;-17125.47;5013972;28;20079;-89
2023/08/01 01:12:47;;;;;;;4.13;2.70;;;;;;;-148.88;100.00;-17125.47;5013501;28;20029;-88
2023/08/01 01:15:12;;;;;;;3.72;2.40;;;;;;;-148.88;100.00;-17125.47;5012919;28;20057;-89
2023/08/01 01:17:41;;;;;;;3.42;2.50;;;;;;;-148.88;100.00;-17125.47;5013450;28;20112;-89
2023/08/01 01:20:07;;;;;;;4.80;2.88;;;;;;;-148.88;100.00;-17125.47;5013593;28;20477;-89
2023/08/01 01:22:37;;;;;;;3.67;2.40;;;;;;;-148.88;100.00;-17125.47;5013275;28;20145;-88
2023/08/01 01:25:11;;;;;;;4.53;2.17;;;;;;;-148.88;100.00;-17125.47;5013781;28;20057;-88
2023/08/01 01:27:38;;;;;;;4.20;2.72;;;;;;;-148.88;100.00;-17125.47;5013630;28;20034;-88
2023/08/01 01:30:05;;;;;;;4.38;2.50;;;;;;;-148.88;100.00;-17125.47;5013349;28;20017;-88
2023/08/01 01:32:30;;;;;;;5.22;2.55;;;;;;;-148.88;100.00;-17125.47;5012957;28;20033;-88
2023/08/01 01:35:05;;;;;;;3.92;2.47;;;;;;;-148.88;100.00;-17125.47;5012735;28;20025;-88
2023/08/01 01:37:31;;;;;;;3.85;2.20;;;;;;;-148.88;100.00;-17125.47;5013424;28;20036;-87
2023/08/01 01:40:00;;;;;;;4.18;2.67;;;;;;;-148.88;100.00;-17125.47;5013508;28;20026;-89
2023/08/01 01:42:25;;;;;;;4.45;2.45;;;;;;;-148.88;100.00;-17125.47;5013233;28;20033;-89
2023/08/01 01:45:00;;;;;;;4.43;2.40;;;;;;;-148.88;100.00;-17125.47;5013098;28;20022;-87
2023/08/01 01:47:40;;;;;;;3.92;2.63;;;;;;;-148.88;100.00;-17125.47;5013279;28;20436;-88
2023/08/01 01:50:09;;;;;;;3.25;2.25;;;;;;;-148.88;100.00;-17125.47;5013815;28;20026;-87
2023/08/01 01:52:37;;;;;;;3.40;2.25;;;;;;;-148.88;100.00;-17125.47;5012888;28;20025;-87
2023/08/01 01:55:06;;;;;;;3.42;2.72;;;;;;;-148.88;100.00;-17125.47;5012393;28;20041;-88
2023/08/01 01:57:31;;;;;;;3.00;2.33;;;;;;;-148.88;100.00;-17125.47;5013022;28;20026;-87
2023/08/01 01:59:57;;;;;;;3.92;2.50;;;;;;;-148.88;100.00;-17125.47;5012716;28;20045;-88
2023/08/01 02:02:27;;;;;;;4.05;2.60;;;;;;;-148.88;100.00;-17125.47;5012913;28;20025;-88
2023/08/01 02:05:08;;;;;;;4.38;3.13;;;;;;;-148.88;100.00;-17125.47;5014128;28;20048;-88
2023/08/01 02:07:33;;;;;;;3.83;2.78;;;;;;;-148.88;100.00;-17125.47;5013015;28;20026;-88
2023/08/01 02:10:08;;;;;;;2.88;2.20;;;;;;;-148.88;100.00;-17125.47;5014040;28;20033;-87
2023/08/01 02:12:36;;;;;;;4.55;2.58;;;;;;;-148.88;100.00;-17125.47;5014205;28;20076;-88
2023/08/01 02:15:02;;;;;;;5.25;2.40;;;;;;;-148.88;100.00;-17125.47;5011921;28;20026;-88
2023/08/01 02:17:28;;;;;;;3.85;2.20;;;;;;;-148.88;100.00;-17125.47;5012059;28;20029;-88
2023/08/01 02:19:56;;;;;;;3.78;2.30;;;;;;;-148.88;100.00;-17125.47;5012789;28;20022;-88
2023/08/01 02:22:24;;;;;;;3.83;2.33;;;;;;;-148.88;100.00;-17125.47;5013127;28;20029;-89
2023/08/01 02:24:52;;;;;;;3.78;2.10;;;;;;;-148.88;100.00;-17125.47;5012158;28;20033;-88
2023/08/01 02:27:18;;;;;;;4.25;2.15;;;;;;;-148.88;100.00;-17125.47;5011286;28;20038;-89
2023/08/01 02:29:44;;;;;;;3.75;2.08;;;;;;;-148.88;100.00;-17125.47;5011816;28;20032;-88
2023/08/01 02:32:09;;;;;;;3.08;2.00;;;;;;;-148.88;100.00;-17125.47;5012022;28;20477;-89
2023/08/01 02:34:40;;;;;;;3.42;1.90;;;;;;;-148.88;100.00;-17125.47;5012016;28;20048;-89
2023/08/01 02:37:06;;;;;;;2.80;1.90;;;;;;;-148.88;100.00;-17125.47;5012814;28;20030;-88
2023/08/01 02:39:31;;;;;;;3.63;1.75;;;;;;;-148.88;100.00;-17125.47;5011840;28;20037;-88
2023/08/01 02:42:00;;;;;;;3.47;1.98;;;;;;;-148.88;100.00;-17125.47;5012106;28;20490;-89
2023/08/01 02:44:26;;;;;;;4.35;2.00;;;;;;;-148.88;100.00;-17125.47;5011985;28;20113;-89
2023/08/01 02:46:54;;;;;;;4.88;1.90;;;;;;;-148.88;100.00;-17125.47;5011992;28;20069;-89
2023/08/01 02:49:20;;;;;;;3.58;1.90;;;;;;;-148.88;100.00;-17125.47;5011850;28;20433;-88
2023/08/01 02:51:48;;;;;;;3.63;2.33;;;;;;;-148.88;100.00;-17125.47;5012856;28;20020;-89
2023/08/01 02:54:14;;;;;;;4.30;2.28;;;;;;;-148.88;100.00;-17125.47;5011903;28;20030;-89
2023/08/01 02:56:41;;;;;;;5.03;2.33;;;;;;;-148.88;100.00;-17125.47;5012178;28;20025;-88
2023/08/01 02:59:08;;;;;;;3.78;2.60;;;;;;;-148.88;100.00;-17125.47;5012292;28;20540;-88
2023/08/01 03:01:35;;;;;;;4.38;2.50;;;;;;;-148.88;100.00;-17125.47;5014213;28;20026;-89
2023/08/01 03:04:02;;;;;;;6.18;2.90;;;;;;;-148.88;100.00;-17125.47;5012322;28;20083;-89
2023/08/01 03:06:28;;;;;;;4.20;2.50;;;;;;;-148.88;100.00;-17125.47;5012006;28;20053;-88
2023/08/01 03:08:57;;;;;;;5.38;2.60;;;;;;;-148.88;100.00;-17125.47;5011983;28;20034;-89
2023/08/01 03:11:25;;;;;;;6.35;2.70;;;;;;;-148.88;100.00;-17125.47;5012030;28;20053;-88
2023/08/01 03:13:51;;;;;;;6.32;2.65;;;;;;;-148.88;100.00;-17125.47;5012640;28;20026;-88
2023/08/01 03:16:17;;;;;;;5.10;2.50;;;;;;;-148.88;100.00;-17125.47;5020359;23;20054;-86
2023/08/01 03:18:42;;;;;;;4.38;2.50;;;;;;;-148.88;100.00;-17125.47;5021334;28;20030;-84
2023/08/01 03:21:08;;;;;;;4.13;2.80;;;;;;;-148.88;100.00;-17125.47;5020502;28;20073;-85
2023/08/01 03:23:33;;;;;;;5.15;3.20;;;;;;;-148.88;100.00;-17125.47;5000643;28;20026;-84
2023/08/01 03:25:59;;;;;;;4.97;3.03;;;;;;;-148.88;100.00;-17125.47;5005833;28;20583;-84
2023/08/01 03:28:26;;;;;;;4.72;2.60;;;;;;;-148.88;100.00;-17125.47;5014685;28;20112;-84
2023/08/01 03:30:53;;;;;;;3.72;2.60;;;;;;;-148.88;100.00;-17125.47;5015674;28;20018;-84
2023/08/01 03:33:19;;;;;;;3.63;2.83;;;;;;;-148.88;100.00;-17125.47;5015343;28;20496;-85
2023/08/01 03:35:44;;;;;;;4.15;3.08;;;;;;;-148.88;100.00;-17125.47;5016353;28;20092;-85
2023/08/01 03:38:10;;;;;;;4.55;3.30;;;;;;;-148.88;100.00;-17125.47;5016325;28;20439;-84
2023/08/01 03:40:35;;;;;;;5.90;3.47;;;;;;;-148.88;100.00;-17125.47;5019333;28;20069;-85
2023/08/01 03:43:00;;;;;;;6.70;4.18;;;;;;;-148.88;100.00;-17125.47;5019020;28;20064;-85
2023/08/01 03:45:29;;;;;;;5.65;4.20;;;;;;;-148.88;100.00;-17125.47;5018935;28;20022;-85
2023/08/01 03:47:54;;;;;;;7.00;4.50;;;;;;;-148.88;100.00;-17125.47;5020997;28;20026;-84
2023/08/01 03:50:20;;;;;;;7.53;4.57;;;;;;;-148.88;100.00;-17125.47;5020383;28;20099;-84
2023/08/01 03:52:49;;;;;;;7.80;4.68;;;;;;;-148.88;100.00;-17125.47;5018259;28;20033;-85
2023/08/01 03:55:14;;;;;;;9.30;4.68;;;;;;;-148.88;100.00;-17125.47;5018794;28;20108;-85
2023/08/01 03:57:40;;;;;;;7.22;5.30;;;;;;;-148.88;100.00;-17125.47;5017390;28;20072;-87
2023/08/01 04:00:13;;;;;;;8.18;5.68;;;;;;;-148.88;100.00;-17125.47;5016591;28;20022;-85
2023/08/01 04:02:38;;;;;;;9.25;6.82;;;;;;;-148.88;100.00;-17125.47;5017573;28;20026;-84
2023/08/01 04:05:04;;;;;;;13.27;8.13;;;;;;;-148.88;100.00;-17125.47;5016327;28;20036;-84
2023/08/01 04:07:32;;;;;;;11.93;9.90;;;;;;;-148.88;100.00;-17125.47;5016081;28;20038;-85
2023/08/01 04:09:57;;;;;;;12.90;10.10;;;;;;;-148.88;100.00;-17125.47;5015970;28;20022;-85
2023/08/01 04:12:23;;;;;;;14.73;10.55;;;;;;;-148.88;100.00;-17125.47;5016423;28;20026;-85
2023/08/01 04:14:48;;;;;;;19.27;12.02;;;;;;;-148.88;100.00;-17125.47;5018051;28;20057;-85
2023/08/01 04:17:13;;;;;;;18.52;13.82;;;;;;;-148.88;100.00;-17125.47;5020125;28;20392;-85
2023/08/01 04:19:39;;;;;;;21.02;14.38;;;;;;;-148.88;100.00;-17125.47;5021228;28;20580;-85
2023/08/01 04:22:04;;;;;;;18.08;12.77;;;;;;;-148.88;100.00;-17125.47;5024493;28;20441;-85
2023/08/01 04:24:30;;;;;;;24.23;15.80;;;;;;;-148.88;100.00;-17125.47;5022946;28;20029;-85
2023/08/01 04:26:56;;;;;;;23.70;15.77;;;;;;;-148.88;100.00;-17125.47;5022402;28;20069;-84
2023/08/01 04:29:21;;;;;;;27.17;17.17;;;;;;;-148.88;100.00;-17125.47;5022757;28;20049;-84
2023/08/01 04:31:47;;;;;;;23.65;15.93;;;;;;;-148.88;100.00;-17125.47;5023156;28;20085;-84
2023/08/01 04:34:12;;;;;;;29.52;17.42;;;;;;;-148.88;100.00;-17125.47;5023029;28;20022;-85
2023/08/01 04:36:37;;;;;;;23.50;16.02;;;;;;;-148.88;100.00;-17125.47;5021780;28;20036;-84
2023/08/01 04:39:03;;;;;;;26.48;17.10;;;;;;;-148.88;100.00;-17125.47;5018354;28;20026;-85
2023/08/01 04:41:28;;;;;;;25.17;15.85;;;;;;;-148.88;100.00;-17125.47;5017402;28;20034;-84
2023/08/01 04:43:53;;;;;;;22.48;14.18;;;;;;;-148.88;100.00;-17125.47;5020237;28;20485;-85
2023/08/01 04:46:19;;;;;;;20.17;13.43;;;;;;;-148.88;100.00;-17125.47;5018896;28;20025;-84
2023/08/01 04:48:44;;;;;;;17.98;13.00;;;;;;;-148.88;100.00;-17125.47;5020747;28;20032;-83
2023/08/01 04:51:09;;;;;;;17.25;12.48;;;;;;;-148.88;100.00;-17125.47;5021432;28;20025;-84
2023/08/01 04:53:35;;;;;;;17.55;12.43;;;;;;;-148.88;100.00;-17125.47;5020511;28;20026;-84
2023/08/01 04:56:03;;;;;;;17.13;12.13;;;;;;;-148.88;100.00;-17125.47;5021180;28;20025;-86
2023/08/01 04:58:30;;;;;;;17.50;11.60;;;;;;;-148.88;100.00;-17125.47;5021111;28;20044;-85
2023/08/01 05:00:55;;;;;;;18.05;11.90;;;;;;;-148.88;100.00;-17125.47;5020851;28;20028;-85
2023/08/01 05:03:21;;;;;;;13.82;10.50;;;;;;;-148.88;100.00;-17125.47;5023152;28;20030;-85
2023/08/01 05:05:46;;;;;;;15.50;11.27;;;;;;;-148.88;100.00;-17125.47;5022406;28;20033;-85
2023/08/01 05:08:12;;;;;;;18.50;11.73;;;;;;;-148.88;100.00;-17125.47;5021084;28;20030;-85
2023/08/01 05:10:37;;;;;;;16.10;11.68;;;;;;;-148.88;100.00;-17125.47;5021379;28;20022;-85
2023/08/01 05:13:03;;;;;;;16.60;11.75;;;;;;;-148.88;100.00;-17125.47;5019692;28;20116;-85
2023/08/01 05:15:28;;;;;;;15.85;11.32;;;;;;;-148.88;100.00;-17125.47;5019803;28;20025;-84
2023/08/01 05:17:54;;;;;;;18.95;12.57;;;;;;;-148.88;100.00;-17125.47;5015511;28;20037;-86
2023/08/01 05:20:19;;;;;;;17.67;12.35;;;;;;;-148.88;100.00;-17125.47;5018005;28;20022;-85
2023/08/01 05:22:45;;;;;;;15.18;11.68;;;;;;;-148.88;100.00;-17125.47;5018202;28;20025;-85
2023/08/01 05:25:10;;;;;;;18.80;12.77;;;;;;;-148.88;100.00;-17125.47;5020653;28;20022;-84
2023/08/01 05:27:35;;;;;;;18.23;12.20;;;;;;;-148.88;100.00;-17125.47;5020937;28;20026;-85
2023/08/01 05:30:01;;;;;;;18.67;12.80;;;;;;;-148.88;100.00;-17125.47;5019088;28;20046;-82
2023/08/01 05:32:26;;;;;;;18.92;12.20;;;;;;;-148.88;100.00;-17125.47;5019235;28;20068;-84
2023/08/01 05:34:51;;;;;;;18.65;12.85;;;;;;;-148.88;100.00;-17125.47;5017873;28;20018;-82
2023/08/01 05:37:17;;;;;;;19.77;12.57;;;;;;;-148.88;100.00;-17125.47;5019203;28;20452;-84
2023/08/01 05:39:42;;;;;;;20.42;12.68;;;;;;;-148.88;100.00;-17125.47;5018516;28;20026;-85
2023/08/01 05:42:08;;;;;;;18.95;11.70;;;;;;;-148.88;100.00;-17125.47;5016962;28;20056;-84
2023/08/01 05:44:34;;;;;;;17.98;12.48;;;;;;;-148.88;100.00;-17125.47;5018504;28;20033;-83
2023/08/01 05:46:59;;;;;;;18.15;11.73;;;;;;;-148.88;100.00;-17125.47;5017628;28;20030;-83
2023/08/01 05:49:25;;;;;;;15.70;11.25;;;;;;;-148.88;100.00;-17125.47;5017293;28;20022;-83
2023/08/01 05:51:50;;;;;;;20.45;10.93;;;;;;;-148.88;100.00;-17125.47;5016650;28;20036;-83
2023/08/01 05:54:15;;;;;;;16.75;10.32;;;;;;;-148.88;100.00;-17125.47;5015964;28;20033;-82
2023/08/01 05:56:41;;;;;;;19.13;10.57;;;;;;;-148.88;100.00;-17125.47;5014614;28;20018;-82
2023/08/01 05:59:06;;;;;;;20.05;10.43;;;;;;;-148.88;100.00;-17125.47;5015736;28;20431;-82
2023/08/01 06:01:32;;;;;;;20.83;11.55;;;;;;;-148.88;100.00;-17125.47;5015524;28;20026;-84
2023/08/01 06:03:57;;;;;;;18.95;10.90;;;;;;;-148.88;100.00;-17125.47;5018384;28;20057;-84
2023/08/01 06:06:22;;;;;;;22.95;11.65;;;;;;;-148.88;100.00;-17125.47;5017184;28;20447;-83
2023/08/01 06:08:48;;;;;;;19.02;10.05;;;;;;;-148.88;100.00;-17125.47;5018771;28;20076;-82
2023/08/01 06:11:13;;;;;;;17.25;10.80;;;;;;;-148.88;100.00;-17125.47;5018956;28;20021;-83
2023/08/01 06:13:38;;;;;;;16.88;10.10;;;;;;;-148.88;100.00;-17125.47;5018035;28;20026;-84
2023/08/01 06:16:04;;;;;;;14.48;9.93;;;;;;;-148.88;100.00;-17125.47;5018342;28;20038;-83
2023/08/01 06:18:29;;;;;;;18.40;10.13;;;;;;;-148.88;100.00;-17125.47;5019270;28;20030;-82
2023/08/01 06:20:55;;;;;;;18.30;10.32;;;;;;;-148.88;100.00;-17125.47;5017697;28;20026;-84
2023/08/01 06:23:20;;;;;;;20.10;10.10;;;;;;;-148.88;100.00;-17125.47;5018692;28;20029;-83
2023/08/01 06:25:45;;;;;;;17.23;10.25;;;;;;;-148.88;100.00;-17125.47;5019007;28;20497;-83
2023/08/01 06:28:11;;;;;;;17.48;10.77;;;;;;;-148.88;100.00;-17125.47;5019518;28;20061;-83
2023/08/01 06:30:36;;;;;;;16.20;10.30;;;;;;;-148.88;100.00;-17125.47;5017483;28;20022;-82
2023/08/01 06:33:02;;;;;;;20.15;9.85;;;;;;;-148.88;100.00;-17125.47;5014842;28;20026;-82
2023/08/01 06:35:27;;;;;;;20.60;10.90;;;;;;;-148.88;100.00;-17125.47;5014970;28;20025;-83
2023/08/01 06:37:52;;;;;;;18.02;10.25;;;;;;;-148.88;100.00;-17125.47;5016940;28;20076;-83
2023/08/01 06:40:18;;;;;;;18.65;10.13;;;;;;;-148.88;100.00;-17125.47;5017557;28;20029;-82
2023/08/01 06:42:43;;;;;;;19.08;10.75;;;;;;;-148.88;100.00;-17125.47;5016744;28;20042;-82
2023/08/01 06:45:09;;;;;;;23.92;10.75;;;;;;;-148.88;100.00;-17125.47;5017077;28;20030;-84
2023/08/01 06:47:34;;;;;;;20.30;10.07;;;;;;;-148.88;100.00;-17125.47;5016910;28;20036;-84
2023/08/01 06:49:59;;;;;;;20.88;11.10;;;;;;;-148.88;100.00;-17125.47;5017403;28;20022;-84
2023/08/01 06:52:25;;;;;;;17.38;9.73;;;;;;;-148.88;100.00;-17125.47;5018312;28;20072;-84
2023/08/01 06:54:50;;;;;;;20.85;10.57;;;;;;;-148.88;100.00;-17125.47;5018671;28;20063;-83
2023/08/01 06:57:15;;;;;;;20.77;10.25;;;;;;;-148.88;100.00;-17125.47;5017446;28;20080;-84
2023/08/01 06:59:41;;;;;;;22.52;10.23;;;;;;;-148.88;100.00;-17125.47;5015931;28;20029;-83
2023/08/01 07:02:08;;;;;;;18.73;11.27;;;;;;;-148.88;100.00;-17125.47;5016119;28;20048;-83
2023/08/01 07:04:34;;;;;;;19.65;10.35;;;;;;;-148.88;100.00;-17125.47;5018388;28;20558;-84
2023/08/01 07:07:00;;;;;;;15.18;9.80;;;;;;;-148.88;100.00;-17125.47;5019866;28;20026;-83
2023/08/01 07:09:25;;;;;;;15.45;10.20;;;;;;;-148.88;100.00;-17125.47;5015131;28;20563;-80
2023/08/01 07:11:53;;;;;;;19.95;9.93;;;;;;;-148.88;100.00;-17125.47;5013822;28;20057;-83
2023/08/01 07:14:18;;;;;;;16.17;9.07;;;;;;;-148.88;100.00;-17125.47;5020590;28;20026;-84
2023/08/01 07:16:43;;;;;;;19.17;12.00;;;;;;;-148.88;100.00;-17125.47;5021730;28;20450;-82
2023/08/01 07:19:09;;;;;;;18.33;10.45;;;;;;;-148.88;100.00;-17125.47;5022519;28;20025;-84
2023/08/01 07:21:34;;;;;;;16.90;8.43;;;;;;;-148.88;100.00;-17125.47;5020781;28;20033;-83
2023/08/01 07:23:59;;;;;;;19.35;9.70;;;;;;;-148.88;100.00;-17125.47;5019787;28;20113;-84
2023/08/01 07:26:25;;;;;;;16.58;9.55;;;;;;;-148.88;100.00;-17125.47;5020205;28;20117;-84
2023/08/01 07:28:50;;;;;;;15.57;9.85;;;;;;;-148.88;100.00;-17125.47;5020600;28;20526;-83
2023/08/01 07:31:16;;;;;;;15.95;8.73;;;;;;;-148.88;100.00;-17125.47;5020187;28;20018;-82
2023/08/01 07:33:41;;;;;;;13.40;8.02;;;;;;;-148.88;100.00;-17125.47;5020677;28;20030;-83
2023/08/01 07:36:09;;;;;;;10.85;6.72;;;;;;;-148.88;100.00;-17125.47;5020462;28;20141;-83
2023/08/01 07:38:34;;;;;;;9.68;6.82;;;;;;;-148.88;100.00;-17125.47;5022237;28;20037;-83
2023/08/01 07:41:04;;;;;;;10.32;6.85;;;;;;;-148.88;100.00;-17125.47;5020547;28;20026;-83
2023/08/01 07:43:30;;;;;;;8.18;6.10;;;;;;;-148.88;100.00;-17125.47;5020377;28;20026;-83
2023/08/01 07:45:57;;;;;;;7.93;5.28;;;;;;;-148.88;100.00;-17125.47;5018666;28;20032;-84
2023/08/01 07:48:22;;;;;;;9.32;5.18;;;;;;;-148.88;100.00;-17125.47;5020224;28;20026;-83
2023/08/01 07:50:47;;;;;;;10.07;5.00;;;;;;;-148.88;100.00;-17125.47;5024520;28;20048;-84
2023/08/01 07:53:13;;;;;;;9.48;5.20;;;;;;;-148.88;100.00;-17125.47;5023162;28;20034;-84
2023/08/01 07:55:38;;;;;;;7.30;4.70;;;;;;;-148.88;100.00;-17125.47;5021003;28;20022;-85
2023/08/01 07:58:03;;;;;;;7.78;5.63;;;;;;;-148.88;100.00;-17125.47;5021015;28;20018;-85
2023/08/01 08:00:29;;;;;;;9.65;5.60;;;;;;;-148.88;100.00;-17125.47;5020668;28;20022;-85
2023/08/01 08:02:54;;;;;;;10.20;6.20;;;;;;;-148.88;100.00;-17125.47;5020563;28;20433;-83
2023/08/01 08:05:20;;;;;;;9.77;6.00;;;;;;;-148.88;100.00;-17125.47;5021993;28;20055;-83
2023/08/01 08:07:45;;;;;;;8.93;6.05;;;;;;;-148.88;100.00;-17125.47;5021458;28;20021;-84
2023/08/01 08:10:10;;;;;;;12.05;5.95;;;;;;;-148.88;100.00;-17125.47;5020693;28;20026;-84
2023/08/01 08:12:36;;;;;;;8.88;5.60;;;;;;;-148.88;100.00;-17125.47;5022685;28;20025;-84
2023/08/01 08:15:01;;;;;;;11.35;6.53;;;;;;;-148.88;100.00;-17125.47;5023116;28;20164;-83
2023/08/01 08:17:26;;;;;;;9.77;6.25;;;;;;;-148.88;100.00;-17125.47;5020618;28;20053;-83
2023/08/01 08:19:52;;;;;;;10.23;6.28;;;;;;;-148.88;100.00;-17125.47;5022263;28;20021;-83
2023/08/01 08:22:17;;;;;;;12.45;5.57;;;;;;;-148.88;100.00;-17125.47;5018685;28;20030;-82
2023/08/01 08:24:42;;;;;;;9.68;5.65;;;;;;;-148.88;100.00;-17125.47;5017255;28;20037;-83
2023/08/01 08:27:08;;;;;;;9.55;5.68;;;;;;;-148.88;100.00;-17125.47;5017680;28;20500;-82
2023/08/01 08:29:33;;;;;;;10.20;5.95;;;;;;;-148.88;100.00;-17125.47;5020304;28;20445;-84
2023/08/01 08:31:59;;;;;;;15.60;6.63;;;;;;;-148.88;100.00;-17125.47;5019853;28;20014;-84
2023/08/01 08:34:24;;;;;;;13.07;5.75;;;;;;;-148.88;100.00;-17125.47;5019270;28;20160;-84
2023/08/01 08:36:50;;;;;;;11.88;6.18;;;;;;;-148.88;100.00;-17125.47;5018505;28;20066;-85
2023/08/01 08:39:16;;;;;;;13.77;5.90;;;;;;;-148.88;100.00;-17125.47;5019940;28;20030;-84
2023/08/01 08:41:49;;;;;;;10.32;5.80;;;;;;;-148.88;100.00;-17125.47;5017162;28;20160;-83
2023/08/01 08:44:16;;;;;;;11.55;5.90;;;;;;;-148.88;100.00;-17125.47;5019111;28;20026;-85
2023/08/01 08:46:43;;;;;;;8.95;5.63;;;;;;;-148.88;100.00;-17125.47;5018345;28;20092;-85
2023/08/01 08:49:09;;;;;;;8.55;5.18;;;;;;;-148.88;100.00;-17125.47;5020459;28;20026;-82
2023/08/01 08:51:37;;;;;;;8.25;4.90;;;;;;;-148.88;100.00;-17125.47;5020179;28;20021;-83
2023/08/01 08:54:05;;;;;;;12.35;5.50;;;;;;;-148.88;100.00;-17125.47;5019024;28;20048;-84
2023/08/01 08:56:30;;;;;;;11.43;5.43;;;;;;;-148.88;100.00;-17125.47;5019179;28;20026;-82
2023/08/01 08:58:56;;;;;;;10.73;5.13;;;;;;;-148.88;100.00;-17125.47;5018951;28;20025;-82
2023/08/01 09:01:22;;;;;;;12.90;4.70;;;;;;;-148.88;100.00;-17125.47;5017104;28;20107;-83
2023/08/01 09:03:47;;;;;;;8.93;4.60;;;;;;;-148.88;100.00;-17125.47;5019270;28;20029;-81
2023/08/01 09:06:20;;;;;;;8.18;3.60;;;;;;;-148.88;100.00;-17125.47;5021579;28;20034;-83
2023/08/01 09:08:51;;;;;;;8.25;4.18;;;;;;;-148.88;100.00;-17125.47;5022964;28;20021;-84
2023/08/01 09:11:17;;;;;;;7.00;4.03;;;;;;;-148.88;100.00;-17125.47;5021517;28;20026;-83
2023/08/01 09:13:42;;;;;;;6.70;3.10;;;;;;;-148.88;100.00;-17125.47;5022972;28;20081;-83
2023/08/01 09:16:10;;;;;;;7.95;3.53;;;;;;;-148.88;100.00;-17125.47;5021725;28;20416;-83
2023/08/01 09:18:46;;;;;;;9.32;3.97;;;;;;;-148.88;100.00;-17125.47;5021728;28;20030;-82
2023/08/01 09:21:11;;;;;;;7.32;4.10;;;;;;;-148.88;100.00;-17125.47;5018965;28;20033;-82
2023/08/01 09:23:36;;;;;;;9.63;4.20;;;;;;;-148.88;100.00;-17125.47;5017660;28;20025;-83
2023/08/01 09:26:15;;;;;;;8.32;3.88;;;;;;;-148.88;100.00;-17125.47;5018184;28;20488;-83
2023/08/01 09:28:40;;;;;;;6.28;3.60;;;;;;;-148.88;100.00;-17125.47;5018684;28;20021;-83
2023/08/01 09:31:06;;;;;;;5.90;3.55;;;;;;;-148.88;100.00;-17125.47;5019529;28;20028;-83
2023/08/01 09:33:39;;;;;;;6.25;3.25;;;;;;;-148.88;100.00;-17125.47;5018122;28;20034;-83
2023/08/01 09:36:05;;;;;;;6.72;3.90;;;;;;;-148.88;100.00;-17125.47;5017987;28;20518;-82
2023/08/01 09:38:34;;;;;;;8.68;4.07;;;;;;;-148.88;100.00;-17125.47;5015544;28;20033;-82
2023/08/01 09:41:00;;;;;;;7.15;3.95;;;;;;;-148.88;100.00;-17125.47;5018146;28;20026;-82
2023/08/01 09:43:34;;;;;;;9.68;4.47;;;;;;;-148.88;100.00;-17125.47;5018903;28;20026;-83
2023/08/01 09:45:59;;;;;;;7.95;4.32;;;;;;;-148.88;100.00;-17125.47;5019276;28;20030;-83
2023/08/01 09:48:27;;;;;;;7.47;4.68;;;;;;;-148.88;100.00;-17125.47;5019197;28;20393;-82
2023/08/01 09:51:04;;;;;;;9.73;4.93;;;;;;;-148.88;100.00;-17125.47;5017862;28;20033;-83
2023/08/01 09:53:29;;;;;;;7.82;4.00;;;;;;;-148.88;100.00;-17125.47;5019238;28;20125;-83
2023/08/01 09:55:56;;;;;;;10.82;4.50;;;;;;;-148.88;100.00;-17125.47;5017948;28;20025;-83
2023/08/01 09:58:24;;;;;;;8.30;4.50;;;;;;;-148.88;100.00;-17125.47;5018841;28;20085;-82
2023/08/01 10:00:50;;;;;;;9.13;5.05;;;;;;;-148.88;100.00;-17125.47;5016614;28;20025;-84
2023/08/01 10:03:17;;;;;;;7.95;5.57;;;;;;;-148.88;100.00;-17125.47;5018419;28;20022;-86
2023/08/01 10:05:43;;;;;;;10.38;6.05;;;;;;;-148.88;100.00;-17125.47;5018607;28;20025;-83
2023/08/01 10:08:09;;;;;;;9.30;5.38;;;;;;;-148.88;100.00;-17125.47;5019373;28;20032;-83
2023/08/01 10:10:35;;;;;;;6.30;3.80;;;;;;;-148.88;100.00;-17125.47;5018097;28;20376;-82
2023/08/01 10:13:01;;;;;;;6.13;3.22;;;;;;;-148.88;100.00;-17125.47;5017036;28;20022;-83
2023/08/01 10:15:28;;;;;;;5.85;3.95;;;;;;;-148.88;100.00;-17125.47;5014415;28;20076;-85
2023/08/01 10:17:56;;;;;;;5.22;4.07;;;;;;;-148.88;100.00;-17125.47;5016497;28;20026;-85
2023/08/01 10:20:22;;;;;;;10.82;5.60;;;;;;;-148.88;100.00;-17125.47;5017804;28;20034;-84
2023/08/01 10:22:50;;;;;;;8.05;5.80;;;;;;;-148.88;100.00;-17125.47;5017465;28;20028;-82
2023/08/01 10:25:16;;;;;;;9.02;6.13;;;;;;;-148.88;100.00;-17125.47;5016454;28;20481;-84
2023/08/01 10:27:42;;;;;;;6.70;5.03;;;;;;;-148.88;100.00;-17125.47;5015685;28;20076;-83
2023/08/01 10:30:09;;;;;;;7.32;5.38;;;;;;;-148.88;100.00;-17125.47;5016038;28;20045;-84
2023/08/01 10:32:37;;;;;;;7.93;4.88;;;;;;;-148.88;100.00;-17125.47;5014552;28;20072;-83
2023/08/01 10:35:04;;;;;;;9.57;4.50;;;;;;;-148.88;100.00;-17125.47;5014810;28;20026;-85
2023/08/01 10:37:44;;;;;;;8.18;4.68;;;;;;;-148.88;100.00;-17125.47;5014782;28;20085;-85
2023/08/01 10:40:10;;;;;;;6.18;4.07;;;;;;;-148.88;100.00;-17125.47;5014895;28;20473;-85
2023/08/01 10:42:44;;;;;;;5.60;3.78;;;;;;;-148.88;100.00;-17125.47;5015184;28;20160;-83
2023/08/01 10:45:23;;;;;;;7.70;4.30;;;;;;;-148.88;100.00;-17125.47;5014436;28;20057;-84
2023/08/01 10:47:49;;;;;;;7.13;4.40;;;;;;;-148.88;100.00;-17125.47;5015115;28;20017;-83
2023/08/01 10:50:16;;;;;;;7.72;4.43;;;;;;;-148.88;100.00;-17125.47;5016367;28;20088;-86
2023/08/01 10:52:42;;;;;;;8.50;4.45;;;;;;;-148.88;100.00;-17125.47;5013729;28;20029;-85
2023/08/01 10:55:07;;;;;;;9.63;4.53;;;;;;;-148.88;100.00;-17125.47;5015310;28;20030;-84